sensor_id;sensor_type;location;lat;lon;timestamp;P1;durP1;ratioP1;P2;durP2;ratioP2
21392;SDS011;10857;52.228;21.026;2022-12-07T06:33:22;21.90;;;12.67;;
21392;SDS011;10857;52.228;21.026;2022-12-07T06:35:49;24.50;;;12.63;;
21392;SDS011;10857;52.228;21.026;2022-12-07T06:38:17;23.10;;;12.43;;
21392;SDS011;10857;52.228;21.026;2022-12-07T06:40:44;22.50;;;12.80;;
21392;SDS011;10857;52.228;21.026;2022-12-07T06:43:12;22.53;;;12.43;;
21392;SDS011;10857;52.228;21.026;2022-12-07T06:45:40;23.20;;;12.80;;
21392;SDS011;10857;52.228;21.026;2022-12-07T06:48:07;20.90;;;11.93;;
21392;SDS011;10857;52.228;21.026;2022-12-07T06:50:35;19.30;;;11.93;;
21392;SDS011;10857;52.228;21.026;2022-12-07T06:53:02;21.37;;;11.60;;
21392;SDS011;10857;52.228;21.026;2022-12-07T06:55:30;19.60;;;11.00;;
21392;SDS011;10857;52.228;21.026;2022-12-07T06:57:57;20.10;;;10.87;;
21392;SDS011;10857;52.228;21.026;2022-12-07T07:00:24;19.80;;;12.20;;
21392;SDS011;10857;52.228;21.026;2022-12-07T07:02:52;20.13;;;12.17;;
21392;SDS011;10857;52.228;21.026;2022-12-07T07:05:19;19.00;;;11.27;;
21392;SDS011;10857;52.228;21.026;2022-12-07T07:07:48;19.27;;;10.97;;
21392;SDS011;10857;52.228;21.026;2022-12-07T07:10:36;22.93;;;11.67;;
21392;SDS011;10857;52.228;21.026;2022-12-07T07:13:03;20.23;;;11.37;;
21392;SDS011;10857;52.228;21.026;2022-12-07T07:15:31;24.83;;;12.80;;
21392;SDS011;10857;52.228;21.026;2022-12-07T07:17:58;21.70;;;12.60;;
21392;SDS011;10857;52.228;21.026;2022-12-07T07:20:33;24.37;;;13.70;;
21392;SDS011;10857;52.228;21.026;2022-12-07T07:23:00;21.80;;;12.53;;
21392;SDS011;10857;52.228;21.026;2022-12-07T07:25:28;23.33;;;12.67;;
21392;SDS011;10857;52.228;21.026;2022-12-07T07:27:55;23.93;;;12.90;;
21392;SDS011;10857;52.228;21.026;2022-12-07T07:30:23;21.53;;;12.13;;
21392;SDS011;10857;52.228;21.026;2022-12-07T07:32:50;23.23;;;12.73;;
21392;SDS011;10857;52.228;21.026;2022-12-07T07:35:18;22.63;;;11.80;;
21392;SDS011;10857;52.228;21.026;2022-12-07T07:37:45;21.00;;;12.20;;
21392;SDS011;10857;52.228;21.026;2022-12-07T07:40:13;22.57;;;12.50;;
21392;SDS011;10857;52.228;21.026;2022-12-07T07:42:40;24.63;;;12.47;;
21392;SDS011;10857;52.228;21.026;2022-12-07T07:45:07;20.37;;;11.37;;
21392;SDS011;10857;52.228;21.026;2022-12-07T07:47:35;21.37;;;12.07;;
21392;SDS011;10857;52.228;21.026;2022-12-07T07:50:03;27.80;;;11.80;;
21392;SDS011;10857;52.228;21.026;2022-12-07T07:52:31;20.63;;;11.83;;
21392;SDS011;10857;52.228;21.026;2022-12-07T07:54:58;19.57;;;11.43;;
21392;SDS011;10857;52.228;21.026;2022-12-07T07:57:25;20.73;;;10.57;;
21392;SDS011;10857;52.228;21.026;2022-12-07T07:59:53;20.43;;;10.63;;
21392;SDS011;10857;52.228;21.026;2022-12-07T08:02:20;24.03;;;12.07;;
21392;SDS011;10857;52.228;21.026;2022-12-07T08:04:48;20.90;;;11.50;;
21392;SDS011;10857;52.228;21.026;2022-12-07T08:07:15;21.87;;;11.37;;
21392;SDS011;10857;52.228;21.026;2022-12-07T08:09:43;20.63;;;11.20;;
21392;SDS011;10857;52.228;21.026;2022-12-07T08:12:10;21.37;;;11.67;;
21392;SDS011;10857;52.228;21.026;2022-12-07T08:14:38;21.03;;;11.33;;
21392;SDS011;10857;52.228;21.026;2022-12-07T08:17:05;24.03;;;11.03;;
21392;SDS011;10857;52.228;21.026;2022-12-07T08:19:32;21.17;;;12.00;;
21392;SDS011;10857;52.228;21.026;2022-12-07T08:22:00;23.53;;;12.57;;
21392;SDS011;10857;52.228;21.026;2022-12-07T08:24:28;24.90;;;12.87;;
21392;SDS011;10857;52.228;21.026;2022-12-07T08:26:55;25.70;;;12.67;;
21392;SDS011;10857;52.228;21.026;2022-12-07T08:29:22;24.13;;;13.03;;
21392;SDS011;10857;52.228;21.026;2022-12-07T08:31:50;31.07;;;14.53;;
21392;SDS011;10857;52.228;21.026;2022-12-07T08:34:17;25.90;;;14.07;;
21392;SDS011;10857;52.228;21.026;2022-12-07T08:36:45;31.73;;;14.47;;
21392;SDS011;10857;52.228;21.026;2022-12-07T08:39:12;32.83;;;15.50;;
21392;SDS011;10857;52.228;21.026;2022-12-07T08:41:57;34.67;;;15.83;;
21392;SDS011;10857;52.228;21.026;2022-12-07T08:44:24;34.97;;;15.90;;
21392;SDS011;10857;52.228;21.026;2022-12-07T08:46:53;33.10;;;16.07;;
21392;SDS011;10857;52.228;21.026;2022-12-07T08:49:33;38.47;;;18.10;;
21392;SDS011;10857;52.228;21.026;2022-12-07T08:52:01;39.27;;;18.23;;
21392;SDS011;10857;52.228;21.026;2022-12-07T08:54:31;36.60;;;18.60;;
21392;SDS011;10857;52.228;21.026;2022-12-07T08:57:02;43.60;;;18.57;;
21392;SDS011;10857;52.228;21.026;2022-12-07T08:59:30;40.43;;;18.37;;
21392;SDS011;10857;52.228;21.026;2022-12-07T09:01:58;41.87;;;19.00;;
21392;SDS011;10857;52.228;21.026;2022-12-07T09:04:26;35.20;;;18.23;;
21392;SDS011;10857;52.228;21.026;2022-12-07T09:06:54;42.37;;;18.70;;
21392;SDS011;10857;52.228;21.026;2022-12-07T09:09:23;40.57;;;18.07;;
21392;SDS011;10857;52.228;21.026;2022-12-07T09:11:50;41.27;;;18.37;;
21392;SDS011;10857;52.228;21.026;2022-12-07T09:14:17;39.73;;;17.70;;
21392;SDS011;10857;52.228;21.026;2022-12-07T09:16:45;40.07;;;18.53;;
21392;SDS011;10857;52.228;21.026;2022-12-07T09:19:12;39.10;;;17.33;;
21392;SDS011;10857;52.228;21.026;2022-12-07T09:21:40;38.53;;;17.87;;
21392;SDS011;10857;52.228;21.026;2022-12-07T09:24:07;38.10;;;18.47;;
21392;SDS011;10857;52.228;21.026;2022-12-07T09:26:36;36.27;;;18.03;;
21392;SDS011;10857;52.228;21.026;2022-12-07T09:29:05;41.70;;;18.07;;
21392;SDS011;10857;52.228;21.026;2022-12-07T09:31:35;37.90;;;17.90;;
21392;SDS011;10857;52.228;21.026;2022-12-07T09:34:02;38.57;;;17.77;;
21392;SDS011;10857;52.228;21.026;2022-12-07T09:36:32;37.57;;;17.20;;
21392;SDS011;10857;52.228;21.026;2022-12-07T09:39:00;34.77;;;16.53;;
21392;SDS011;10857;52.228;21.026;2022-12-07T09:41:29;39.40;;;17.37;;
21392;SDS011;10857;52.228;21.026;2022-12-07T09:46:39;38.07;;;17.80;;
21392;SDS011;10857;52.228;21.026;2022-12-07T09:49:16;34.97;;;17.17;;
21392;SDS011;10857;52.228;21.026;2022-12-07T09:51:44;39.90;;;17.80;;
21392;SDS011;10857;52.228;21.026;2022-12-07T09:54:13;41.77;;;18.07;;
21392;SDS011;10857;52.228;21.026;2022-12-07T09:56:43;38.10;;;17.90;;
21392;SDS011;10857;52.228;21.026;2022-12-07T09:59:16;37.17;;;17.23;;
21392;SDS011;10857;52.228;21.026;2022-12-07T10:01:46;35.37;;;16.07;;
21392;SDS011;10857;52.228;21.026;2022-12-07T10:04:14;35.67;;;15.87;;
21392;SDS011;10857;52.228;21.026;2022-12-07T10:06:44;34.13;;;14.83;;
21392;SDS011;10857;52.228;21.026;2022-12-07T10:09:12;35.20;;;15.57;;
21392;SDS011;10857;52.228;21.026;2022-12-07T10:14:27;33.77;;;14.80;;
21392;SDS011;10857;52.228;21.026;2022-12-07T10:20:10;30.73;;;14.87;;
21392;SDS011;10857;52.228;21.026;2022-12-07T10:22:52;34.58;;;18.80;;
21392;SDS011;10857;52.228;21.026;2022-12-07T10:25:21;35.70;;;16.53;;
21392;SDS011;10857;52.228;21.026;2022-12-07T10:27:58;34.57;;;15.83;;
21392;SDS011;10857;52.228;21.026;2022-12-07T10:30:26;33.10;;;13.90;;
21392;SDS011;10857;52.228;21.026;2022-12-07T10:32:53;32.57;;;14.40;;
21392;SDS011;10857;52.228;21.026;2022-12-07T10:37:49;29.07;;;14.10;;
21392;SDS011;10857;52.228;21.026;2022-12-07T10:43:03;27.67;;;12.87;;
21392;SDS011;10857;52.228;21.026;2022-12-07T10:45:32;31.47;;;14.47;;
21392;SDS011;10857;52.228;21.026;2022-12-07T10:50:41;29.23;;;14.60;;
21392;SDS011;10857;52.228;21.026;2022-12-07T10:58:48;27.33;;;13.63;;
21392;SDS011;10857;52.228;21.026;2022-12-07T11:03:53;28.42;;;15.70;;
21392;SDS011;10857;52.228;21.026;2022-12-07T11:06:44;28.90;;;14.87;;
21392;SDS011;10857;52.228;21.026;2022-12-07T11:14:50;28.40;;;14.07;;
21392;SDS011;10857;52.228;21.026;2022-12-07T11:17:31;27.40;;;13.83;;
21392;SDS011;10857;52.228;21.026;2022-12-07T11:28:01;27.20;;;14.43;;
21392;SDS011;10857;52.228;21.026;2022-12-07T11:30:34;30.47;;;14.17;;
21392;SDS011;10857;52.228;21.026;2022-12-07T11:38:37;25.40;;;13.40;;
21392;SDS011;10857;52.228;21.026;2022-12-07T11:41:08;28.77;;;15.30;;
21392;SDS011;10857;52.228;21.026;2022-12-07T11:46:49;27.83;;;14.47;;
21392;SDS011;10857;52.228;21.026;2022-12-07T11:51:57;26.03;;;13.97;;
21392;SDS011;10857;52.228;21.026;2022-12-07T11:54:27;28.03;;;15.00;;
21392;SDS011;10857;52.228;21.026;2022-12-07T11:56:56;27.33;;;14.10;;
21392;SDS011;10857;52.228;21.026;2022-12-07T11:59:33;28.67;;;15.03;;
21392;SDS011;10857;52.228;21.026;2022-12-07T12:04:52;27.90;;;14.40;;
21392;SDS011;10857;52.228;21.026;2022-12-07T12:07:23;23.60;;;13.07;;
21392;SDS011;10857;52.228;21.026;2022-12-07T12:12:59;26.03;;;13.83;;
21392;SDS011;10857;52.228;21.026;2022-12-07T12:21:07;26.33;;;14.30;;
21392;SDS011;10857;52.228;21.026;2022-12-07T12:26:03;25.87;;;13.97;;
21392;SDS011;10857;52.228;21.026;2022-12-07T12:28:37;28.77;;;14.93;;
21392;SDS011;10857;52.228;21.026;2022-12-07T12:31:29;29.60;;;14.70;;
21392;SDS011;10857;52.228;21.026;2022-12-07T12:34:00;27.17;;;14.97;;
21392;SDS011;10857;52.228;21.026;2022-12-07T12:36:43;29.20;;;14.63;;
21392;SDS011;10857;52.228;21.026;2022-12-07T12:39:12;27.90;;;14.50;;
21392;SDS011;10857;52.228;21.026;2022-12-07T12:45:03;28.27;;;14.83;;
21392;SDS011;10857;52.228;21.026;2022-12-07T12:53:20;27.10;;;14.80;;
21392;SDS011;10857;52.228;21.026;2022-12-07T12:56:02;29.77;;;15.27;;
21392;SDS011;10857;52.228;21.026;2022-12-07T12:58:37;26.73;;;13.77;;
21392;SDS011;10857;52.228;21.026;2022-12-07T13:03:51;27.00;;;15.23;;
21392;SDS011;10857;52.228;21.026;2022-12-07T13:06:28;29.23;;;15.13;;
21392;SDS011;10857;52.228;21.026;2022-12-07T13:09:01;26.03;;;14.13;;
21392;SDS011;10857;52.228;21.026;2022-12-07T13:11:33;29.43;;;14.60;;
21392;SDS011;10857;52.228;21.026;2022-12-07T13:16:47;25.83;;;13.77;;
21392;SDS011;10857;52.228;21.026;2022-12-07T13:22:01;26.07;;;13.70;;
21392;SDS011;10857;52.228;21.026;2022-12-07T13:24:29;23.27;;;12.10;;
21392;SDS011;10857;52.228;21.026;2022-12-07T13:26:58;22.43;;;12.57;;
21392;SDS011;10857;52.228;21.026;2022-12-07T13:29:25;24.83;;;13.07;;
21392;SDS011;10857;52.228;21.026;2022-12-07T13:31:56;25.10;;;12.40;;
21392;SDS011;10857;52.228;21.026;2022-12-07T13:39:32;23.17;;;12.73;;
21392;SDS011;10857;52.228;21.026;2022-12-07T13:42:19;24.20;;;13.30;;
21392;SDS011;10857;52.228;21.026;2022-12-07T13:44:47;22.67;;;13.37;;
21392;SDS011;10857;52.228;21.026;2022-12-07T13:47:17;24.87;;;13.30;;
21392;SDS011;10857;52.228;21.026;2022-12-07T13:49:49;25.53;;;14.33;;
21392;SDS011;10857;52.228;21.026;2022-12-07T13:52:24;23.30;;;13.57;;
21392;SDS011;10857;52.228;21.026;2022-12-07T13:57:32;24.63;;;14.70;;
21392;SDS011;10857;52.228;21.026;2022-12-07T14:00:02;26.70;;;14.77;;
21392;SDS011;10857;52.228;21.026;2022-12-07T14:02:31;26.37;;;14.63;;
21392;SDS011;10857;52.228;21.026;2022-12-07T14:07:55;24.37;;;14.63;;
21392;SDS011;10857;52.228;21.026;2022-12-07T14:10:27;25.67;;;14.67;;
21392;SDS011;10857;52.228;21.026;2022-12-07T14:12:56;25.63;;;14.43;;
21392;SDS011;10857;52.228;21.026;2022-12-07T14:15:25;25.63;;;13.83;;
21392;SDS011;10857;52.228;21.026;2022-12-07T14:17:54;23.43;;;13.73;;
21392;SDS011;10857;52.228;21.026;2022-12-07T14:20:35;23.03;;;13.87;;
21392;SDS011;10857;52.228;21.026;2022-12-07T14:23:04;28.90;;;15.80;;
21392;SDS011;10857;52.228;21.026;2022-12-07T14:25:47;25.40;;;14.30;;
21392;SDS011;10857;52.228;21.026;2022-12-07T14:28:33;25.63;;;14.70;;
21392;SDS011;10857;52.228;21.026;2022-12-07T14:31:01;27.27;;;15.30;;
21392;SDS011;10857;52.228;21.026;2022-12-07T14:33:29;27.03;;;15.83;;
21392;SDS011;10857;52.228;21.026;2022-12-07T14:35:57;28.67;;;16.80;;
21392;SDS011;10857;52.228;21.026;2022-12-07T14:38:24;28.63;;;16.73;;
21392;SDS011;10857;52.228;21.026;2022-12-07T14:40:52;30.23;;;16.23;;
21392;SDS011;10857;52.228;21.026;2022-12-07T14:43:20;29.10;;;16.97;;
21392;SDS011;10857;52.228;21.026;2022-12-07T14:45:47;29.67;;;16.60;;
21392;SDS011;10857;52.228;21.026;2022-12-07T14:48:15;28.90;;;17.13;;
21392;SDS011;10857;52.228;21.026;2022-12-07T14:51:02;30.63;;;16.30;;
21392;SDS011;10857;52.228;21.026;2022-12-07T14:53:51;29.73;;;16.47;;
21392;SDS011;10857;52.228;21.026;2022-12-07T14:56:23;29.13;;;16.60;;
21392;SDS011;10857;52.228;21.026;2022-12-07T14:58:51;30.97;;;17.53;;
21392;SDS011;10857;52.228;21.026;2022-12-07T15:01:18;30.53;;;17.57;;
21392;SDS011;10857;52.228;21.026;2022-12-07T15:03:45;29.63;;;17.23;;
21392;SDS011;10857;52.228;21.026;2022-12-07T15:06:14;31.70;;;17.37;;
21392;SDS011;10857;52.228;21.026;2022-12-07T15:08:41;32.40;;;17.63;;
21392;SDS011;10857;52.228;21.026;2022-12-07T15:11:14;32.43;;;17.80;;
21392;SDS011;10857;52.228;21.026;2022-12-07T15:13:41;31.43;;;17.90;;
21392;SDS011;10857;52.228;21.026;2022-12-07T15:16:27;29.40;;;17.17;;
21392;SDS011;10857;52.228;21.026;2022-12-07T15:19:18;32.50;;;17.77;;
21392;SDS011;10857;52.228;21.026;2022-12-07T15:21:55;31.07;;;16.90;;
21392;SDS011;10857;52.228;21.026;2022-12-07T15:24:23;30.70;;;17.77;;
21392;SDS011;10857;52.228;21.026;2022-12-07T15:26:51;33.70;;;17.70;;
21392;SDS011;10857;52.228;21.026;2022-12-07T15:29:18;32.37;;;17.43;;
21392;SDS011;10857;52.228;21.026;2022-12-07T15:31:50;34.50;;;17.90;;
21392;SDS011;10857;52.228;21.026;2022-12-07T15:34:23;31.80;;;17.17;;
21392;SDS011;10857;52.228;21.026;2022-12-07T15:36:52;32.80;;;17.30;;
21392;SDS011;10857;52.228;21.026;2022-12-07T15:39:21;34.47;;;18.87;;
21392;SDS011;10857;52.228;21.026;2022-12-07T15:41:49;33.27;;;17.33;;
21392;SDS011;10857;52.228;21.026;2022-12-07T15:44:17;33.83;;;18.60;;
21392;SDS011;10857;52.228;21.026;2022-12-07T15:47:06;33.70;;;18.40;;
21392;SDS011;10857;52.228;21.026;2022-12-07T15:49:33;34.50;;;18.27;;
21392;SDS011;10857;52.228;21.026;2022-12-07T15:52:01;30.23;;;17.50;;
21392;SDS011;10857;52.228;21.026;2022-12-07T15:54:28;32.33;;;17.57;;
21392;SDS011;10857;52.228;21.026;2022-12-07T15:56:58;31.10;;;17.03;;
21392;SDS011;10857;52.228;21.026;2022-12-07T15:59:27;32.10;;;17.00;;
21392;SDS011;10857;52.228;21.026;2022-12-07T16:01:55;32.67;;;16.83;;
21392;SDS011;10857;52.228;21.026;2022-12-07T16:04:22;33.33;;;17.13;;
21392;SDS011;10857;52.228;21.026;2022-12-07T16:06:50;31.50;;;17.43;;
21392;SDS011;10857;52.228;21.026;2022-12-07T16:09:18;33.07;;;17.40;;
21392;SDS011;10857;52.228;21.026;2022-12-07T16:11:45;30.60;;;16.83;;
21392;SDS011;10857;52.228;21.026;2022-12-07T16:14:14;33.03;;;17.70;;
21392;SDS011;10857;52.228;21.026;2022-12-07T16:16:42;30.10;;;16.53;;
21392;SDS011;10857;52.228;21.026;2022-12-07T16:19:09;32.50;;;17.33;;
21392;SDS011;10857;52.228;21.026;2022-12-07T16:21:40;31.87;;;17.70;;
21392;SDS011;10857;52.228;21.026;2022-12-07T16:24:08;32.90;;;17.43;;
21392;SDS011;10857;52.228;21.026;2022-12-07T16:26:37;30.90;;;17.57;;
21392;SDS011;10857;52.228;21.026;2022-12-07T16:29:11;31.40;;;16.93;;
21392;SDS011;10857;52.228;21.026;2022-12-07T16:31:40;31.93;;;17.77;;
21392;SDS011;10857;52.228;21.026;2022-12-07T16:34:08;33.80;;;16.83;;
21392;SDS011;10857;52.228;21.026;2022-12-07T16:36:37;30.10;;;16.43;;
21392;SDS011;10857;52.228;21.026;2022-12-07T16:39:25;33.13;;;17.90;;
21392;SDS011;10857;52.228;21.026;2022-12-07T16:41:52;33.20;;;17.80;;
21392;SDS011;10857;52.228;21.026;2022-12-07T16:44:19;32.03;;;17.43;;
21392;SDS011;10857;52.228;21.026;2022-12-07T16:46:47;32.77;;;18.10;;
21392;SDS011;10857;52.228;21.026;2022-12-07T16:49:14;32.30;;;18.30;;
21392;SDS011;10857;52.228;21.026;2022-12-07T16:51:42;32.03;;;17.67;;
21392;SDS011;10857;52.228;21.026;2022-12-07T16:54:10;33.43;;;18.00;;
21392;SDS011;10857;52.228;21.026;2022-12-07T16:56:38;33.87;;;17.77;;
21392;SDS011;10857;52.228;21.026;2022-12-07T16:59:06;33.30;;;18.73;;
21392;SDS011;10857;52.228;21.026;2022-12-07T17:01:33;33.73;;;18.27;;
21392;SDS011;10857;52.228;21.026;2022-12-07T17:04:17;35.17;;;18.60;;
21392;SDS011;10857;52.228;21.026;2022-12-07T17:06:45;37.17;;;19.63;;
21392;SDS011;10857;52.228;21.026;2022-12-07T17:09:12;34.03;;;17.73;;
21392;SDS011;10857;52.228;21.026;2022-12-07T17:11:46;33.83;;;18.57;;
21392;SDS011;10857;52.228;21.026;2022-12-07T17:14:14;35.87;;;19.60;;
21392;SDS011;10857;52.228;21.026;2022-12-07T17:17:01;33.47;;;18.20;;
21392;SDS011;10857;52.228;21.026;2022-12-07T17:19:29;32.17;;;18.33;;
21392;SDS011;10857;52.228;21.026;2022-12-07T17:21:56;36.57;;;19.23;;
21392;SDS011;10857;52.228;21.026;2022-12-07T17:24:24;31.80;;;16.63;;
21392;SDS011;10857;52.228;21.026;2022-12-07T17:26:54;33.63;;;17.70;;
21392;SDS011;10857;52.228;21.026;2022-12-07T17:29:21;32.60;;;18.27;;
21392;SDS011;10857;52.228;21.026;2022-12-07T17:31:49;33.87;;;19.10;;
21392;SDS011;10857;52.228;21.026;2022-12-07T17:34:17;31.43;;;18.07;;
21392;SDS011;10857;52.228;21.026;2022-12-07T17:36:45;33.00;;;18.50;;
21392;SDS011;10857;52.228;21.026;2022-12-07T17:39:14;32.70;;;18.57;;
21392;SDS011;10857;52.228;21.026;2022-12-07T17:41:42;30.43;;;16.93;;
21392;SDS011;10857;52.228;21.026;2022-12-07T17:44:28;33.53;;;18.53;;
21392;SDS011;10857;52.228;21.026;2022-12-07T17:46:56;32.57;;;17.87;;
21392;SDS011;10857;52.228;21.026;2022-12-07T17:49:31;31.00;;;17.47;;
21392;SDS011;10857;52.228;21.026;2022-12-07T17:51:59;31.73;;;17.23;;
21392;SDS011;10857;52.228;21.026;2022-12-07T17:54:45;31.73;;;17.17;;
21392;SDS011;10857;52.228;21.026;2022-12-07T17:57:12;35.93;;;18.17;;
21392;SDS011;10857;52.228;21.026;2022-12-07T17:59:40;32.03;;;16.77;;
21392;SDS011;10857;52.228;21.026;2022-12-07T18:02:08;31.97;;;17.00;;
21392;SDS011;10857;52.228;21.026;2022-12-07T18:04:36;29.13;;;17.17;;
21392;SDS011;10857;52.228;21.026;2022-12-07T18:07:04;29.53;;;17.23;;
21392;SDS011;10857;52.228;21.026;2022-12-07T18:09:32;32.70;;;18.00;;
21392;SDS011;10857;52.228;21.026;2022-12-07T18:12:00;29.10;;;16.67;;
21392;SDS011;10857;52.228;21.026;2022-12-07T18:14:27;32.50;;;17.97;;
21392;SDS011;10857;52.228;21.026;2022-12-07T18:16:57;33.17;;;17.20;;
21392;SDS011;10857;52.228;21.026;2022-12-07T18:19:24;30.03;;;16.43;;
21392;SDS011;10857;52.228;21.026;2022-12-07T18:21:52;31.67;;;17.23;;
21392;SDS011;10857;52.228;21.026;2022-12-07T18:24:22;31.37;;;17.40;;
21392;SDS011;10857;52.228;21.026;2022-12-07T18:26:49;32.50;;;17.37;;
21392;SDS011;10857;52.228;21.026;2022-12-07T18:29:18;33.13;;;18.20;;
21392;SDS011;10857;52.228;21.026;2022-12-07T18:31:46;28.93;;;16.60;;
21392;SDS011;10857;52.228;21.026;2022-12-07T18:34:15;36.03;;;17.90;;
21392;SDS011;10857;52.228;21.026;2022-12-07T18:36:44;31.13;;;18.20;;
21392;SDS011;10857;52.228;21.026;2022-12-07T18:39:12;26.97;;;14.73;;
21392;SDS011;10857;52.228;21.026;2022-12-07T18:41:40;24.40;;;13.47;;
21392;SDS011;10857;52.228;21.026;2022-12-07T18:44:08;21.30;;;11.33;;
21392;SDS011;10857;52.228;21.026;2022-12-07T18:46:35;21.20;;;12.80;;
21392;SDS011;10857;52.228;21.026;2022-12-07T18:49:03;21.07;;;12.30;;
21392;SDS011;10857;52.228;21.026;2022-12-07T18:51:31;23.53;;;12.83;;
21392;SDS011;10857;52.228;21.026;2022-12-07T18:53:58;24.57;;;13.40;;
21392;SDS011;10857;52.228;21.026;2022-12-07T18:56:27;23.60;;;16.55;;
21392;SDS011;10857;52.228;21.026;2022-12-07T18:58:59;25.33;;;14.17;;
21392;SDS011;10857;52.228;21.026;2022-12-07T19:01:46;21.70;;;14.43;;
21392;SDS011;10857;52.228;21.026;2022-12-07T19:04:14;22.10;;;13.43;;
21392;SDS011;10857;52.228;21.026;2022-12-07T19:06:45;24.20;;;14.10;;
21392;SDS011;10857;52.228;21.026;2022-12-07T19:09:15;24.23;;;17.00;;
21392;SDS011;10857;52.228;21.026;2022-12-07T19:11:43;23.73;;;15.03;;
21392;SDS011;10857;52.228;21.026;2022-12-07T19:14:24;25.00;;;14.80;;
21392;SDS011;10857;52.228;21.026;2022-12-07T19:16:59;25.80;;;15.67;;
21392;SDS011;10857;52.228;21.026;2022-12-07T19:19:29;26.57;;;15.00;;
21392;SDS011;10857;52.228;21.026;2022-12-07T19:21:57;28.57;;;15.13;;
21392;SDS011;10857;52.228;21.026;2022-12-07T19:24:25;24.73;;;14.77;;
21392;SDS011;10857;52.228;21.026;2022-12-07T19:26:52;24.87;;;14.60;;
21392;SDS011;10857;52.228;21.026;2022-12-07T19:29:19;25.47;;;15.63;;
21392;SDS011;10857;52.228;21.026;2022-12-07T19:31:47;27.10;;;14.53;;
21392;SDS011;10857;52.228;21.026;2022-12-07T19:34:15;24.83;;;15.17;;
21392;SDS011;10857;52.228;21.026;2022-12-07T19:36:43;23.90;;;14.17;;
21392;SDS011;10857;52.228;21.026;2022-12-07T19:39:11;23.53;;;13.50;;
21392;SDS011;10857;52.228;21.026;2022-12-07T19:41:44;26.17;;;14.10;;
21392;SDS011;10857;52.228;21.026;2022-12-07T19:44:13;24.70;;;13.80;;
21392;SDS011;10857;52.228;21.026;2022-12-07T19:46:41;23.57;;;13.57;;
21392;SDS011;10857;52.228;21.026;2022-12-07T19:49:08;25.50;;;15.07;;
21392;SDS011;10857;52.228;21.026;2022-12-07T19:51:36;21.67;;;13.67;;
21392;SDS011;10857;52.228;21.026;2022-12-07T19:54:04;25.83;;;14.67;;
21392;SDS011;10857;52.228;21.026;2022-12-07T19:56:32;28.27;;;14.37;;
21392;SDS011;10857;52.228;21.026;2022-12-07T19:59:00;23.67;;;13.13;;
21392;SDS011;10857;52.228;21.026;2022-12-07T20:01:28;23.90;;;13.30;;
21392;SDS011;10857;52.228;21.026;2022-12-07T20:03:56;22.43;;;13.07;;
21392;SDS011;10857;52.228;21.026;2022-12-07T20:06:23;20.80;;;12.43;;
21392;SDS011;10857;52.228;21.026;2022-12-07T20:08:51;19.87;;;12.03;;
21392;SDS011;10857;52.228;21.026;2022-12-07T20:11:19;20.53;;;12.27;;
21392;SDS011;10857;52.228;21.026;2022-12-07T20:14:07;21.03;;;12.30;;
21392;SDS011;10857;52.228;21.026;2022-12-07T20:16:35;20.83;;;11.17;;
21392;SDS011;10857;52.228;21.026;2022-12-07T20:19:03;18.60;;;11.10;;
21392;SDS011;10857;52.228;21.026;2022-12-07T20:21:30;22.33;;;11.87;;
21392;SDS011;10857;52.228;21.026;2022-12-07T20:23:59;19.80;;;11.50;;
21392;SDS011;10857;52.228;21.026;2022-12-07T20:26:26;19.77;;;11.60;;
21392;SDS011;10857;52.228;21.026;2022-12-07T20:28:54;18.13;;;10.53;;
21392;SDS011;10857;52.228;21.026;2022-12-07T20:31:22;20.27;;;11.30;;
21392;SDS011;10857;52.228;21.026;2022-12-07T20:33:50;21.60;;;12.73;;
21392;SDS011;10857;52.228;21.026;2022-12-07T20:36:18;23.07;;;12.30;;
21392;SDS011;10857;52.228;21.026;2022-12-07T20:38:46;20.43;;;11.93;;
21392;SDS011;10857;52.228;21.026;2022-12-07T20:41:14;22.10;;;12.20;;
21392;SDS011;10857;52.228;21.026;2022-12-07T20:44:00;19.03;;;11.37;;
21392;SDS011;10857;52.228;21.026;2022-12-07T20:46:28;19.30;;;11.20;;
21392;SDS011;10857;52.228;21.026;2022-12-07T20:48:57;17.03;;;10.53;;
21392;SDS011;10857;52.228;21.026;2022-12-07T20:51:26;19.43;;;9.43;;
21392;SDS011;10857;52.228;21.026;2022-12-07T20:53:54;15.83;;;9.50;;
21392;SDS011;10857;52.228;21.026;2022-12-07T20:56:24;16.50;;;9.23;;
21392;SDS011;10857;52.228;21.026;2022-12-07T20:58:56;16.13;;;9.43;;
21392;SDS011;10857;52.228;21.026;2022-12-07T21:01:23;16.23;;;9.13;;
21392;SDS011;10857;52.228;21.026;2022-12-07T21:03:55;15.77;;;9.20;;
21392;SDS011;10857;52.228;21.026;2022-12-07T21:06:23;17.13;;;9.03;;
21392;SDS011;10857;52.228;21.026;2022-12-07T21:08:51;14.83;;;8.83;;
21392;SDS011;10857;52.228;21.026;2022-12-07T21:11:21;19.00;;;8.83;;
21392;SDS011;10857;52.228;21.026;2022-12-07T21:13:48;15.77;;;8.87;;
21392;SDS011;10857;52.228;21.026;2022-12-07T21:16:18;16.50;;;8.70;;
21392;SDS011;10857;52.228;21.026;2022-12-07T21:18:46;15.20;;;9.00;;
21392;SDS011;10857;52.228;21.026;2022-12-07T21:21:17;17.20;;;9.07;;
21392;SDS011;10857;52.228;21.026;2022-12-07T21:23:45;18.03;;;10.20;;
21392;SDS011;10857;52.228;21.026;2022-12-07T21:26:17;15.83;;;9.43;;
21392;SDS011;10857;52.228;21.026;2022-12-07T21:28:46;17.87;;;9.30;;
21392;SDS011;10857;52.228;21.026;2022-12-07T21:31:14;17.00;;;9.73;;
21392;SDS011;10857;52.228;21.026;2022-12-07T21:33:42;16.77;;;9.00;;
21392;SDS011;10857;52.228;21.026;2022-12-07T21:36:10;15.90;;;8.53;;
21392;SDS011;10857;52.228;21.026;2022-12-07T21:38:38;15.70;;;9.00;;
21392;SDS011;10857;52.228;21.026;2022-12-07T21:41:16;18.63;;;8.67;;
21392;SDS011;10857;52.228;21.026;2022-12-07T21:43:45;16.73;;;9.03;;
21392;SDS011;10857;52.228;21.026;2022-12-07T21:46:13;19.63;;;9.67;;
21392;SDS011;10857;52.228;21.026;2022-12-07T21:48:48;15.60;;;8.67;;
21392;SDS011;10857;52.228;21.026;2022-12-07T21:51:16;14.63;;;8.07;;
21392;SDS011;10857;52.228;21.026;2022-12-07T21:53:46;16.97;;;8.77;;
21392;SDS011;10857;52.228;21.026;2022-12-07T21:58:48;19.90;;;9.20;;
21392;SDS011;10857;52.228;21.026;2022-12-07T22:01:21;18.43;;;9.30;;
21392;SDS011;10857;52.228;21.026;2022-12-07T22:03:49;17.03;;;8.87;;
21392;SDS011;10857;52.228;21.026;2022-12-07T22:06:20;17.23;;;9.60;;
21392;SDS011;10857;52.228;21.026;2022-12-07T22:08:48;17.37;;;9.67;;
21392;SDS011;10857;52.228;21.026;2022-12-07T22:11:16;15.57;;;8.63;;
21392;SDS011;10857;52.228;21.026;2022-12-07T22:13:44;17.67;;;9.40;;
21392;SDS011;10857;52.228;21.026;2022-12-07T22:16:36;16.90;;;8.57;;
21392;SDS011;10857;52.228;21.026;2022-12-07T22:19:03;17.83;;;9.20;;
21392;SDS011;10857;52.228;21.026;2022-12-07T22:21:31;14.57;;;8.10;;
21392;SDS011;10857;52.228;21.026;2022-12-07T22:23:59;16.83;;;9.00;;
21392;SDS011;10857;52.228;21.026;2022-12-07T22:26:26;17.70;;;9.10;;
21392;SDS011;10857;52.228;21.026;2022-12-07T22:28:54;16.50;;;7.57;;
21392;SDS011;10857;52.228;21.026;2022-12-07T22:31:22;15.37;;;8.30;;
21392;SDS011;10857;52.228;21.026;2022-12-07T22:33:50;15.30;;;8.17;;